createdAt,value
2023-03-23T15:58:31.999Z,100113.19
2023-03-23T16:01:35.194Z,100121.72
2023-03-23T16:04:38.823Z,100129.94
2023-03-23T16:07:42.022Z,100137.28
2023-03-23T16:10:46.092Z,100142.44
2023-03-23T16:13:49.279Z,100134.22
2023-03-23T16:16:53.150Z,100140.28
2023-03-23T16:19:56.624Z,100156.28
2023-03-23T16:23:01.663Z,100160.50
2023-03-23T16:26:05.092Z,100158.31
2023-03-23T16:29:28.388Z,100157.56
2023-03-23T16:35:41.956Z,100140.72
2023-03-23T16:38:48.985Z,100153.69
2023-03-23T16:41:53.329Z,100148.00
2023-03-23T16:44:56.488Z,100151.00
2023-03-23T16:48:01.843Z,100147.69
2023-03-23T16:51:05.758Z,100159.19
2023-03-23T16:54:09.243Z,100160.16
2023-03-23T16:57:13.198Z,100153.09
2023-03-23T17:00:22.273Z,100155.91
2023-03-23T17:03:25.869Z,100159.19
2023-03-23T17:06:30.400Z,100160.50
2023-03-23T17:09:33.880Z,100167.47
2023-03-23T17:12:38.167Z,100168.63
2023-03-23T17:15:45.247Z,100181.38
2023-03-23T17:18:50.762Z,100165.09
2023-03-23T17:21:54.258Z,100177.25
2023-03-23T17:24:58.846Z,100185.91
2023-03-23T17:28:05.951Z,100181.66
2023-03-23T17:31:10.809Z,100189.72
2023-03-23T17:34:14.629Z,100190.25
2023-03-23T17:37:22.729Z,100194.34
2023-03-23T17:40:26.630Z,100201.38
2023-03-23T17:43:30.785Z,100206.81
2023-03-23T17:46:36.039Z,100207.34
2023-03-23T17:49:41.517Z,100206.59
2023-03-23T17:52:47.029Z,100211.88
2023-03-23T17:55:52.604Z,100205.66
2023-03-23T17:58:57.111Z,100202.87
2023-03-23T18:02:02.600Z,100202.19
2023-03-23T18:05:09.464Z,100207.06
2023-03-23T18:08:14.139Z,100211.81
2023-03-23T18:11:19.218Z,100221.47
2023-03-23T18:14:24.715Z,100214.91
2023-03-23T18:17:32.813Z,100224.84
2023-03-23T18:20:38.552Z,100230.56
2023-03-23T18:23:53.192Z,100238.19
2023-03-23T18:27:02.972Z,100226.59
2023-03-23T18:30:10.691Z,100240.16
2023-03-23T18:33:16.208Z,100243.41
2023-03-23T18:36:24.693Z,100234.19
2023-03-23T18:39:29.528Z,100246.25
2023-03-23T18:42:33.912Z,100239.44
2023-03-23T18:45:39.995Z,100243.97
2023-03-23T18:48:44.882Z,100245.94
2023-03-23T18:51:48.676Z,100253.94
2023-03-23T18:54:54.381Z,100243.63
2023-03-23T18:58:00.864Z,100248.47
2023-03-23T19:01:08.697Z,100245.75
2023-03-23T19:04:13.739Z,100252.94
2023-03-23T19:07:20.049Z,100262.53
2023-03-23T19:10:24.810Z,100257.75
2023-03-23T19:13:31.449Z,100257.47
2023-03-23T19:16:36.436Z,100249.94
2023-03-23T19:19:43.225Z,100241.78
2023-03-23T19:22:48.543Z,100244.37
2023-03-23T19:25:54.840Z,100256.12
2023-03-23T19:29:25.938Z,100251.47
2023-03-23T19:32:30.866Z,100264.84
2023-03-23T19:35:37.386Z,100264.47
2023-03-23T19:38:43.343Z,100264.75
2023-03-23T19:41:49.153Z,100253.87
2023-03-23T19:44:55.523Z,100267.59
2023-03-23T19:48:00.354Z,100274.41
2023-03-23T19:51:09.968Z,100270.84
2023-03-23T19:54:14.181Z,100278.84
2023-03-23T19:57:19.640Z,100269.28
2023-03-23T20:00:25.201Z,100284.13
2023-03-23T20:03:30.441Z,100279.12
2023-03-23T20:06:36.669Z,100276.03
2023-03-23T20:09:43.153Z,100288.16
2023-03-23T20:12:47.341Z,100297.16
2023-03-23T20:15:59.664Z,100283.06
2023-03-23T20:19:05.770Z,100275.03
2023-03-23T20:22:10.794Z,100281.41
2023-03-23T20:25:15.268Z,100289.56
2023-03-23T20:28:20.102Z,100281.88
2023-03-23T20:31:34.281Z,100294.84
2023-03-23T20:34:40.998Z,100283.81
2023-03-23T20:37:46.570Z,100287.38
2023-03-23T20:40:54.041Z,100285.53
2023-03-23T20:43:57.890Z,100284.25
2023-03-23T20:47:03.675Z,100284.13
2023-03-23T20:50:11.426Z,100280.16
2023-03-23T20:53:16.275Z,100280.56
2023-03-23T20:56:24.391Z,100281.25
2023-03-23T20:59:30.941Z,100295.72
2023-03-23T21:02:35.825Z,100294.84
2023-03-23T21:05:42.354Z,100237.16
2023-03-23T21:08:48.869Z,100251.97
2023-03-23T21:11:54.017Z,100269.50
2023-03-23T21:14:58.414Z,100280.13
2023-03-23T21:18:04.519Z,100262.97
2023-03-23T21:21:11.372Z,100290.38
2023-03-23T21:24:16.738Z,100284.44
2023-03-23T21:27:20.758Z,100291.03
2023-03-23T21:30:24.822Z,100290.47
2023-03-23T21:33:28.860Z,100268.50
2023-03-23T21:36:35.823Z,100296.22
2023-03-23T21:39:39.171Z,100288.28
2023-03-23T21:42:44.349Z,100293.12
2023-03-23T21:45:47.575Z,100286.94
2023-03-23T21:48:51.757Z,100286.25
2023-03-23T21:51:56.805Z,100278.63
2023-03-23T21:55:02.826Z,100277.84
2023-03-23T21:58:06.188Z,100296.84
2023-03-23T22:04:14.568Z,100289.56
2023-03-23T22:07:18.214Z,100295.75
2023-03-23T22:10:21.826Z,100303.50
2023-03-23T22:13:24.921Z,100296.84
2023-03-23T22:16:28.664Z,100301.63
2023-03-23T22:19:33.214Z,100295.47
2023-03-23T22:22:37.125Z,100311.63
2023-03-23T22:25:40.434Z,100305.03
2023-03-23T22:28:46.384Z,100309.69
2023-03-23T22:31:49.543Z,100301.72
2023-03-23T22:34:53.751Z,100310.81
2023-03-23T22:37:57.060Z,100308.94
2023-03-23T22:41:04.784Z,100306.38
2023-03-23T22:44:14.899Z,100306.94
2023-03-23T22:47:18.496Z,100302.75
2023-03-23T22:50:24.182Z,100293.31
2023-03-23T22:53:27.581Z,100298.44
2023-03-23T22:56:30.861Z,100304.06
2023-03-23T22:59:35.067Z,100308.56
2023-03-23T23:02:39.315Z,100310.47
2023-03-23T23:05:44.548Z,100308.94
2023-03-23T23:08:51.839Z,100304.72
2023-03-23T23:11:56.173Z,100301.41
2023-03-23T23:14:59.261Z,100300.97
2023-03-23T23:18:05.063Z,100288.37
2023-03-23T23:21:12.716Z,100298.37
2023-03-23T23:24:16.284Z,100299.06
2023-03-23T23:27:20.125Z,100291.13
2023-03-23T23:30:23.976Z,100288.94
2023-03-23T23:33:27.248Z,100296.78
2023-03-23T23:36:32.500Z,100298.19
2023-03-23T23:39:38.524Z,100293.09
2023-03-23T23:42:45.340Z,100288.72
2023-03-23T23:45:48.633Z,100285.19
2023-03-23T23:48:52.287Z,100283.66
2023-03-23T23:51:56.704Z,100292.41
2023-03-23T23:55:00.162Z,100285.94
2023-03-23T23:58:03.276Z,100280.87
